sensor_id;sensor_type;location;lat;lon;timestamp;P1;durP1;ratioP1;P2;durP2;ratioP2
24663;SDS011;12791;50.992;13.788;2023-07-31T00:01:36;1.80;;;0.77;;
24663;SDS011;12791;50.992;13.788;2023-07-31T00:04:02;1.10;;;0.68;;
24663;SDS011;12791;50.992;13.788;2023-07-31T00:06:29;1.92;;;0.77;;
24663;SDS011;12791;50.992;13.788;2023-07-31T00:08:57;2.45;;;0.77;;
24663;SDS011;12791;50.992;13.788;2023-07-31T00:11:24;0.93;;;0.80;;
24663;SDS011;12791;50.992;13.788;2023-07-31T00:13:52;1.58;;;0.90;;
24663;SDS011;12791;50.992;13.788;2023-07-31T00:16:19;1.95;;;0.80;;
24663;SDS011;12791;50.992;13.788;2023-07-31T00:18:45;1.90;;;0.80;;
24663;SDS011;12791;50.992;13.788;2023-07-31T00:21:12;1.08;;;0.60;;
24663;SDS011;12791;50.992;13.788;2023-07-31T00:23:39;1.90;;;0.70;;
24663;SDS011;12791;50.992;13.788;2023-07-31T00:26:07;4.70;;;0.93;;
24663;SDS011;12791;50.992;13.788;2023-07-31T00:28:33;1.88;;;0.93;;
24663;SDS011;12791;50.992;13.788;2023-07-31T00:31:00;2.03;;;0.70;;
24663;SDS011;12791;50.992;13.788;2023-07-31T00:33:28;2.40;;;0.70;;
24663;SDS011;12791;50.992;13.788;2023-07-31T00:35:55;1.45;;;0.65;;
24663;SDS011;12791;50.992;13.788;2023-07-31T00:38:22;1.50;;;0.68;;
24663;SDS011;12791;50.992;13.788;2023-07-31T00:40:49;2.13;;;0.70;;
24663;SDS011;12791;50.992;13.788;2023-07-31T00:43:17;0.73;;;0.60;;
24663;SDS011;12791;50.992;13.788;2023-07-31T00:45:43;2.05;;;0.80;;
24663;SDS011;12791;50.992;13.788;2023-07-31T00:48:10;1.67;;;0.70;;
24663;SDS011;12791;50.992;13.788;2023-07-31T00:50:37;1.85;;;0.95;;
24663;SDS011;12791;50.992;13.788;2023-07-31T00:53:04;0.98;;;0.63;;
24663;SDS011;12791;50.992;13.788;2023-07-31T00:55:31;1.77;;;0.70;;
24663;SDS011;12791;50.992;13.788;2023-07-31T00:57:58;1.20;;;0.60;;
24663;SDS011;12791;50.992;13.788;2023-07-31T01:00:26;1.98;;;0.73;;
24663;SDS011;12791;50.992;13.788;2023-07-31T01:02:53;0.98;;;0.60;;
24663;SDS011;12791;50.992;13.788;2023-07-31T01:05:20;0.82;;;0.60;;
24663;SDS011;12791;50.992;13.788;2023-07-31T01:08:00;1.67;;;0.70;;
24663;SDS011;12791;50.992;13.788;2023-07-31T01:10:34;0.90;;;0.65;;
24663;SDS011;12791;50.992;13.788;2023-07-31T01:13:07;2.85;;;0.85;;
24663;SDS011;12791;50.992;13.788;2023-07-31T01:15:36;0.68;;;0.60;;
24663;SDS011;12791;50.992;13.788;2023-07-31T01:18:03;1.90;;;0.60;;
24663;SDS011;12791;50.992;13.788;2023-07-31T01:20:30;2.17;;;0.93;;
24663;SDS011;12791;50.992;13.788;2023-07-31T01:23:08;2.03;;;0.90;;
24663;SDS011;12791;50.992;13.788;2023-07-31T01:26:05;1.30;;;0.80;;
24663;SDS011;12791;50.992;13.788;2023-07-31T01:28:40;1.45;;;0.60;;
24663;SDS011;12791;50.992;13.788;2023-07-31T01:31:14;1.77;;;0.82;;
24663;SDS011;12791;50.992;13.788;2023-07-31T01:33:46;2.78;;;0.80;;
24663;SDS011;12791;50.992;13.788;2023-07-31T01:36:14;1.85;;;0.70;;
24663;SDS011;12791;50.992;13.788;2023-07-31T01:38:41;2.05;;;1.02;;
24663;SDS011;12791;50.992;13.788;2023-07-31T01:41:09;1.05;;;0.70;;
24663;SDS011;12791;50.992;13.788;2023-07-31T01:43:35;1.42;;;0.77;;
24663;SDS011;12791;50.992;13.788;2023-07-31T01:46:02;0.80;;;0.70;;
24663;SDS011;12791;50.992;13.788;2023-07-31T01:48:29;2.63;;;0.82;;
24663;SDS011;12791;50.992;13.788;2023-07-31T01:51:00;1.98;;;0.95;;
24663;SDS011;12791;50.992;13.788;2023-07-31T01:53:27;1.38;;;0.77;;
24663;SDS011;12791;50.992;13.788;2023-07-31T01:55:54;1.90;;;1.17;;
24663;SDS011;12791;50.992;13.788;2023-07-31T01:58:22;1.08;;;0.65;;
24663;SDS011;12791;50.992;13.788;2023-07-31T02:00:49;1.05;;;0.60;;
24663;SDS011;12791;50.992;13.788;2023-07-31T02:03:15;7.00;;;0.82;;
24663;SDS011;12791;50.992;13.788;2023-07-31T02:05:44;1.85;;;0.60;;
24663;SDS011;12791;50.992;13.788;2023-07-31T02:08:11;0.95;;;0.60;;
24663;SDS011;12791;50.992;13.788;2023-07-31T02:10:38;1.10;;;0.70;;
24663;SDS011;12791;50.992;13.788;2023-07-31T02:13:04;1.63;;;0.60;;
24663;SDS011;12791;50.992;13.788;2023-07-31T02:15:32;1.08;;;0.80;;
24663;SDS011;12791;50.992;13.788;2023-07-31T02:17:59;1.77;;;0.95;;
24663;SDS011;12791;50.992;13.788;2023-07-31T02:20:26;2.17;;;0.82;;
24663;SDS011;12791;50.992;13.788;2023-07-31T02:22:53;2.55;;;0.82;;
24663;SDS011;12791;50.992;13.788;2023-07-31T02:25:19;1.15;;;0.73;;
24663;SDS011;12791;50.992;13.788;2023-07-31T02:27:46;2.13;;;0.90;;
24663;SDS011;12791;50.992;13.788;2023-07-31T02:30:13;1.17;;;0.70;;
24663;SDS011;12791;50.992;13.788;2023-07-31T02:32:40;2.60;;;0.70;;
24663;SDS011;12791;50.992;13.788;2023-07-31T02:35:07;0.60;;;0.60;;
24663;SDS011;12791;50.992;13.788;2023-07-31T02:37:34;1.10;;;0.50;;
24663;SDS011;12791;50.992;13.788;2023-07-31T02:40:01;3.13;;;0.73;;
24663;SDS011;12791;50.992;13.788;2023-07-31T02:42:27;1.02;;;0.68;;
24663;SDS011;12791;50.992;13.788;2023-07-31T02:44:54;1.55;;;0.98;;
24663;SDS011;12791;50.992;13.788;2023-07-31T02:47:21;1.00;;;0.70;;
24663;SDS011;12791;50.992;13.788;2023-07-31T02:49:49;3.00;;;0.70;;
24663;SDS011;12791;50.992;13.788;2023-07-31T02:52:16;1.90;;;0.63;;
24663;SDS011;12791;50.992;13.788;2023-07-31T02:54:42;0.82;;;0.60;;
24663;SDS011;12791;50.992;13.788;2023-07-31T02:57:09;1.58;;;0.70;;
24663;SDS011;12791;50.992;13.788;2023-07-31T02:59:36;2.72;;;0.80;;
24663;SDS011;12791;50.992;13.788;2023-07-31T03:02:03;0.80;;;0.60;;
24663;SDS011;12791;50.992;13.788;2023-07-31T03:04:30;2.10;;;0.60;;
24663;SDS011;12791;50.992;13.788;2023-07-31T03:06:58;1.00;;;0.75;;
24663;SDS011;12791;50.992;13.788;2023-07-31T03:09:24;1.58;;;0.70;;
24663;SDS011;12791;50.992;13.788;2023-07-31T03:11:51;1.65;;;0.70;;
24663;SDS011;12791;50.992;13.788;2023-07-31T03:14:18;2.55;;;0.85;;
24663;SDS011;12791;50.992;13.788;2023-07-31T03:16:44;3.22;;;1.00;;
24663;SDS011;12791;50.992;13.788;2023-07-31T03:19:11;3.10;;;0.90;;
24663;SDS011;12791;50.992;13.788;2023-07-31T03:21:38;2.22;;;0.77;;
24663;SDS011;12791;50.992;13.788;2023-07-31T03:24:06;1.88;;;0.82;;
24663;SDS011;12791;50.992;13.788;2023-07-31T03:26:32;3.80;;;0.85;;
24663;SDS011;12791;50.992;13.788;2023-07-31T03:29:00;2.20;;;0.60;;
24663;SDS011;12791;50.992;13.788;2023-07-31T03:31:27;1.15;;;0.63;;
24663;SDS011;12791;50.992;13.788;2023-07-31T03:33:53;4.28;;;0.85;;
24663;SDS011;12791;50.992;13.788;2023-07-31T03:36:20;2.22;;;0.60;;
24663;SDS011;12791;50.992;13.788;2023-07-31T03:38:47;1.17;;;0.70;;
24663;SDS011;12791;50.992;13.788;2023-07-31T03:41:15;2.67;;;0.70;;
24663;SDS011;12791;50.992;13.788;2023-07-31T03:43:41;1.98;;;0.85;;
24663;SDS011;12791;50.992;13.788;2023-07-31T03:46:08;1.88;;;0.63;;
24663;SDS011;12791;50.992;13.788;2023-07-31T03:48:35;1.50;;;0.90;;
24663;SDS011;12791;50.992;13.788;2023-07-31T03:51:01;3.13;;;1.08;;
24663;SDS011;12791;50.992;13.788;2023-07-31T03:53:28;0.73;;;0.70;;
24663;SDS011;12791;50.992;13.788;2023-07-31T03:55:55;2.20;;;0.93;;
24663;SDS011;12791;50.992;13.788;2023-07-31T03:58:23;1.30;;;0.80;;
24663;SDS011;12791;50.992;13.788;2023-07-31T04:00:49;2.38;;;1.00;;
24663;SDS011;12791;50.992;13.788;2023-07-31T04:03:16;1.38;;;0.82;;
24663;SDS011;12791;50.992;13.788;2023-07-31T04:05:43;2.90;;;1.13;;
24663;SDS011;12791;50.992;13.788;2023-07-31T04:08:10;2.65;;;1.00;;
24663;SDS011;12791;50.992;13.788;2023-07-31T04:10:37;2.53;;;0.80;;
24663;SDS011;12791;50.992;13.788;2023-07-31T04:13:03;2.90;;;0.90;;
24663;SDS011;12791;50.992;13.788;2023-07-31T04:15:31;2.05;;;0.95;;
24663;SDS011;12791;50.992;13.788;2023-07-31T04:17:58;1.20;;;0.98;;
24663;SDS011;12791;50.992;13.788;2023-07-31T04:20:25;4.25;;;1.10;;
24663;SDS011;12791;50.992;13.788;2023-07-31T04:22:51;1.95;;;0.93;;
24663;SDS011;12791;50.992;13.788;2023-07-31T04:25:18;1.55;;;1.05;;
24663;SDS011;12791;50.992;13.788;2023-07-31T04:27:45;1.58;;;0.95;;
24663;SDS011;12791;50.992;13.788;2023-07-31T04:30:11;1.30;;;0.93;;
24663;SDS011;12791;50.992;13.788;2023-07-31T04:32:39;1.77;;;0.90;;
24663;SDS011;12791;50.992;13.788;2023-07-31T04:35:06;2.35;;;0.95;;
24663;SDS011;12791;50.992;13.788;2023-07-31T04:37:33;1.63;;;1.13;;
24663;SDS011;12791;50.992;13.788;2023-07-31T04:40:00;0.93;;;0.80;;
24663;SDS011;12791;50.992;13.788;2023-07-31T04:42:27;2.50;;;1.27;;
24663;SDS011;12791;50.992;13.788;2023-07-31T04:44:53;2.03;;;1.20;;
24663;SDS011;12791;50.992;13.788;2023-07-31T04:47:20;2.13;;;1.00;;
24663;SDS011;12791;50.992;13.788;2023-07-31T04:49:48;1.42;;;1.08;;
24663;SDS011;12791;50.992;13.788;2023-07-31T04:52:15;2.42;;;1.17;;
24663;SDS011;12791;50.992;13.788;2023-07-31T04:54:41;1.23;;;1.00;;
24663;SDS011;12791;50.992;13.788;2023-07-31T04:57:08;3.42;;;1.25;;
24663;SDS011;12791;50.992;13.788;2023-07-31T04:59:35;3.25;;;1.25;;
24663;SDS011;12791;50.992;13.788;2023-07-31T05:02:02;1.70;;;1.23;;
24663;SDS011;12791;50.992;13.788;2023-07-31T05:04:28;2.70;;;1.33;;
24663;SDS011;12791;50.992;13.788;2023-07-31T05:06:56;1.60;;;1.20;;
24663;SDS011;12791;50.992;13.788;2023-07-31T05:09:23;2.40;;;1.08;;
24663;SDS011;12791;50.992;13.788;2023-07-31T05:11:50;1.45;;;1.10;;
24663;SDS011;12791;50.992;13.788;2023-07-31T05:14:16;2.00;;;1.23;;
24663;SDS011;12791;50.992;13.788;2023-07-31T05:16:43;2.13;;;1.23;;
24663;SDS011;12791;50.992;13.788;2023-07-31T05:19:10;3.10;;;1.50;;
24663;SDS011;12791;50.992;13.788;2023-07-31T05:21:36;1.63;;;1.00;;
24663;SDS011;12791;50.992;13.788;2023-07-31T05:24:04;2.72;;;1.60;;
24663;SDS011;12791;50.992;13.788;2023-07-31T05:26:31;3.47;;;1.33;;
24663;SDS011;12791;50.992;13.788;2023-07-31T05:28:58;2.17;;;1.35;;
24663;SDS011;12791;50.992;13.788;2023-07-31T05:31:24;3.45;;;1.52;;
24663;SDS011;12791;50.992;13.788;2023-07-31T05:33:51;1.55;;;1.10;;
24663;SDS011;12791;50.992;13.788;2023-07-31T05:36:18;2.22;;;1.40;;
24663;SDS011;12791;50.992;13.788;2023-07-31T05:38:44;3.85;;;1.27;;
24663;SDS011;12791;50.992;13.788;2023-07-31T05:41:12;2.47;;;1.10;;
24663;SDS011;12791;50.992;13.788;2023-07-31T05:43:39;1.70;;;1.00;;
24663;SDS011;12791;50.992;13.788;2023-07-31T05:46:06;1.42;;;1.23;;
24663;SDS011;12791;50.992;13.788;2023-07-31T05:48:34;1.55;;;0.95;;
24663;SDS011;12791;50.992;13.788;2023-07-31T05:51:01;1.20;;;1.10;;
24663;SDS011;12791;50.992;13.788;2023-07-31T05:53:27;1.60;;;0.90;;
24663;SDS011;12791;50.992;13.788;2023-07-31T05:55:54;1.67;;;1.40;;
24663;SDS011;12791;50.992;13.788;2023-07-31T05:58:22;2.15;;;1.30;;
24663;SDS011;12791;50.992;13.788;2023-07-31T06:00:49;1.85;;;1.30;;
24663;SDS011;12791;50.992;13.788;2023-07-31T06:03:15;1.70;;;1.10;;
24663;SDS011;12791;50.992;13.788;2023-07-31T06:05:42;2.58;;;1.00;;
24663;SDS011;12791;50.992;13.788;2023-07-31T06:08:09;1.70;;;1.10;;
24663;SDS011;12791;50.992;13.788;2023-07-31T06:10:36;1.52;;;1.30;;
24663;SDS011;12791;50.992;13.788;2023-07-31T06:13:03;2.67;;;1.13;;
24663;SDS011;12791;50.992;13.788;2023-07-31T06:15:31;2.58;;;1.10;;
24663;SDS011;12791;50.992;13.788;2023-07-31T06:17:58;1.38;;;1.13;;
24663;SDS011;12791;50.992;13.788;2023-07-31T06:20:26;1.73;;;1.25;;
24663;SDS011;12791;50.992;13.788;2023-07-31T06:22:53;2.22;;;1.30;;
24663;SDS011;12791;50.992;13.788;2023-07-31T06:25:20;1.77;;;1.30;;
24663;SDS011;12791;50.992;13.788;2023-07-31T06:27:47;2.30;;;1.40;;
24663;SDS011;12791;50.992;13.788;2023-07-31T06:30:14;2.55;;;1.42;;
24663;SDS011;12791;50.992;13.788;2023-07-31T06:32:42;1.98;;;1.27;;
24663;SDS011;12791;50.992;13.788;2023-07-31T06:35:08;2.08;;;1.40;;
24663;SDS011;12791;50.992;13.788;2023-07-31T06:37:35;1.88;;;1.20;;
24663;SDS011;12791;50.992;13.788;2023-07-31T06:40:02;5.18;;;1.60;;
24663;SDS011;12791;50.992;13.788;2023-07-31T06:42:30;2.40;;;1.33;;
24663;SDS011;12791;50.992;13.788;2023-07-31T06:44:57;4.20;;;1.65;;
24663;SDS011;12791;50.992;13.788;2023-07-31T06:47:24;2.53;;;1.30;;
24663;SDS011;12791;50.992;13.788;2023-07-31T06:49:51;2.92;;;1.40;;
24663;SDS011;12791;50.992;13.788;2023-07-31T06:52:18;2.75;;;1.05;;
24663;SDS011;12791;50.992;13.788;2023-07-31T06:54:57;1.70;;;1.02;;
24663;SDS011;12791;50.992;13.788;2023-07-31T06:57:27;2.92;;;1.25;;
24663;SDS011;12791;50.992;13.788;2023-07-31T06:59:54;2.30;;;1.23;;
24663;SDS011;12791;50.992;13.788;2023-07-31T07:02:20;1.75;;;1.00;;
24663;SDS011;12791;50.992;13.788;2023-07-31T07:04:47;1.52;;;1.00;;
24663;SDS011;12791;50.992;13.788;2023-07-31T07:07:17;3.10;;;1.75;;
24663;SDS011;12791;50.992;13.788;2023-07-31T07:09:43;1.40;;;1.20;;
24663;SDS011;12791;50.992;13.788;2023-07-31T07:12:10;1.55;;;1.15;;
24663;SDS011;12791;50.992;13.788;2023-07-31T07:14:37;1.77;;;1.10;;
24663;SDS011;12791;50.992;13.788;2023-07-31T07:17:04;1.75;;;1.02;;
24663;SDS011;12791;50.992;13.788;2023-07-31T07:19:31;2.88;;;1.38;;
24663;SDS011;12791;50.992;13.788;2023-07-31T07:21:57;1.33;;;1.20;;
24663;SDS011;12791;50.992;13.788;2023-07-31T07:24:27;1.40;;;1.30;;
24663;SDS011;12791;50.992;13.788;2023-07-31T07:26:54;3.83;;;1.45;;
24663;SDS011;12791;50.992;13.788;2023-07-31T07:29:21;1.65;;;1.50;;
24663;SDS011;12791;50.992;13.788;2023-07-31T07:31:47;2.05;;;1.50;;
24663;SDS011;12791;50.992;13.788;2023-07-31T07:34:14;1.33;;;1.15;;
24663;SDS011;12791;50.992;13.788;2023-07-31T07:36:41;2.60;;;1.35;;
24663;SDS011;12791;50.992;13.788;2023-07-31T07:39:08;1.38;;;1.27;;
24663;SDS011;12791;50.992;13.788;2023-07-31T07:41:37;2.60;;;1.40;;
24663;SDS011;12791;50.992;13.788;2023-07-31T07:44:04;1.95;;;1.13;;
24663;SDS011;12791;50.992;13.788;2023-07-31T07:46:30;2.60;;;1.42;;
24663;SDS011;12791;50.992;13.788;2023-07-31T07:48:57;3.47;;;1.13;;
24663;SDS011;12791;50.992;13.788;2023-07-31T07:51:24;2.55;;;1.52;;
24663;SDS011;12791;50.992;13.788;2023-07-31T07:53:50;2.90;;;1.58;;
24663;SDS011;12791;50.992;13.788;2023-07-31T07:56:17;2.15;;;1.30;;
24663;SDS011;12791;50.992;13.788;2023-07-31T07:58:45;2.17;;;1.40;;
24663;SDS011;12791;50.992;13.788;2023-07-31T08:01:14;3.38;;;1.60;;
24663;SDS011;12791;50.992;13.788;2023-07-31T08:03:41;2.20;;;1.50;;
24663;SDS011;12791;50.992;13.788;2023-07-31T08:06:08;2.75;;;1.23;;
24663;SDS011;12791;50.992;13.788;2023-07-31T08:08:35;2.85;;;1.75;;
24663;SDS011;12791;50.992;13.788;2023-07-31T08:11:02;1.45;;;1.20;;
24663;SDS011;12791;50.992;13.788;2023-07-31T08:13:29;2.35;;;1.17;;
24663;SDS011;12791;50.992;13.788;2023-07-31T08:15:57;4.32;;;1.88;;
24663;SDS011;12791;50.992;13.788;2023-07-31T08:18:24;3.40;;;1.55;;
24663;SDS011;12791;50.992;13.788;2023-07-31T08:20:50;1.85;;;1.48;;
24663;SDS011;12791;50.992;13.788;2023-07-31T08:23:17;2.83;;;1.75;;
24663;SDS011;12791;50.992;13.788;2023-07-31T08:25:44;4.43;;;2.00;;
24663;SDS011;12791;50.992;13.788;2023-07-31T08:28:11;4.13;;;1.67;;
24663;SDS011;12791;50.992;13.788;2023-07-31T08:30:38;2.13;;;1.50;;
24663;SDS011;12791;50.992;13.788;2023-07-31T08:33:06;1.83;;;1.58;;
24663;SDS011;12791;50.992;13.788;2023-07-31T08:35:32;3.13;;;1.60;;
24663;SDS011;12791;50.992;13.788;2023-07-31T08:37:59;3.95;;;1.52;;
24663;SDS011;12791;50.992;13.788;2023-07-31T08:40:26;1.80;;;1.65;;
24663;SDS011;12791;50.992;13.788;2023-07-31T08:42:53;2.45;;;1.30;;
24663;SDS011;12791;50.992;13.788;2023-07-31T08:45:26;3.05;;;1.38;;
24663;SDS011;12791;50.992;13.788;2023-07-31T08:47:54;3.42;;;1.55;;
24663;SDS011;12791;50.992;13.788;2023-07-31T08:50:23;2.33;;;1.60;;
24663;SDS011;12791;50.992;13.788;2023-07-31T08:52:50;3.65;;;1.58;;
24663;SDS011;12791;50.992;13.788;2023-07-31T08:55:18;4.95;;;1.75;;
24663;SDS011;12791;50.992;13.788;2023-07-31T08:57:48;2.33;;;1.80;;
24663;SDS011;12791;50.992;13.788;2023-07-31T09:00:16;3.65;;;1.60;;
24663;SDS011;12791;50.992;13.788;2023-07-31T09:02:46;2.20;;;1.30;;
24663;SDS011;12791;50.992;13.788;2023-07-31T09:05:17;3.53;;;1.70;;
24663;SDS011;12791;50.992;13.788;2023-07-31T09:07:46;1.50;;;1.40;;
24663;SDS011;12791;50.992;13.788;2023-07-31T09:10:13;2.35;;;1.73;;
24663;SDS011;12791;50.992;13.788;2023-07-31T09:12:40;5.78;;;2.10;;
24663;SDS011;12791;50.992;13.788;2023-07-31T09:15:09;3.03;;;1.58;;
24663;SDS011;12791;50.992;13.788;2023-07-31T09:17:37;2.05;;;1.50;;
24663;SDS011;12791;50.992;13.788;2023-07-31T09:20:12;1.60;;;1.50;;
24663;SDS011;12791;50.992;13.788;2023-07-31T09:22:40;3.53;;;1.65;;
24663;SDS011;12791;50.992;13.788;2023-07-31T09:25:15;2.25;;;1.65;;
24663;SDS011;12791;50.992;13.788;2023-07-31T09:27:46;3.80;;;1.80;;
24663;SDS011;12791;50.992;13.788;2023-07-31T09:30:13;1.70;;;1.60;;
24663;SDS011;12791;50.992;13.788;2023-07-31T09:32:40;2.08;;;1.40;;
24663;SDS011;12791;50.992;13.788;2023-07-31T09:37:55;2.75;;;1.60;;
24663;SDS011;12791;50.992;13.788;2023-07-31T09:40:28;2.08;;;1.45;;
24663;SDS011;12791;50.992;13.788;2023-07-31T09:42:56;2.78;;;1.48;;
24663;SDS011;12791;50.992;13.788;2023-07-31T09:45:24;2.38;;;1.60;;
24663;SDS011;12791;50.992;13.788;2023-07-31T09:47:51;1.70;;;1.38;;
24663;SDS011;12791;50.992;13.788;2023-07-31T09:50:19;2.50;;;1.63;;
24663;SDS011;12791;50.992;13.788;2023-07-31T09:52:47;2.13;;;1.60;;
24663;SDS011;12791;50.992;13.788;2023-07-31T09:55:14;1.80;;;1.52;;
24663;SDS011;12791;50.992;13.788;2023-07-31T09:57:43;1.30;;;1.20;;
24663;SDS011;12791;50.992;13.788;2023-07-31T10:00:12;1.40;;;1.30;;
24663;SDS011;12791;50.992;13.788;2023-07-31T10:02:40;2.30;;;1.50;;
24663;SDS011;12791;50.992;13.788;2023-07-31T10:05:07;2.10;;;1.60;;
24663;SDS011;12791;50.992;13.788;2023-07-31T10:07:36;1.95;;;1.40;;
24663;SDS011;12791;50.992;13.788;2023-07-31T10:10:05;2.63;;;1.60;;
24663;SDS011;12791;50.992;13.788;2023-07-31T10:12:34;1.77;;;1.48;;
24663;SDS011;12791;50.992;13.788;2023-07-31T10:15:04;2.28;;;1.55;;
24663;SDS011;12791;50.992;13.788;2023-07-31T10:17:32;3.05;;;1.40;;
24663;SDS011;12791;50.992;13.788;2023-07-31T10:20:01;2.25;;;1.55;;
24663;SDS011;12791;50.992;13.788;2023-07-31T10:22:30;1.63;;;1.52;;
24663;SDS011;12791;50.992;13.788;2023-07-31T10:24:57;1.50;;;1.33;;
24663;SDS011;12791;50.992;13.788;2023-07-31T10:27:24;2.10;;;1.70;;
24663;SDS011;12791;50.992;13.788;2023-07-31T10:29:51;2.50;;;1.48;;
24663;SDS011;12791;50.992;13.788;2023-07-31T10:32:21;2.30;;;1.50;;
24663;SDS011;12791;50.992;13.788;2023-07-31T10:34:49;1.48;;;1.38;;
24663;SDS011;12791;50.992;13.788;2023-07-31T10:37:21;1.95;;;1.60;;
24663;SDS011;12791;50.992;13.788;2023-07-31T10:39:55;1.65;;;1.40;;
24663;SDS011;12791;50.992;13.788;2023-07-31T10:42:27;1.60;;;1.50;;
24663;SDS011;12791;50.992;13.788;2023-07-31T10:44:59;2.65;;;1.52;;
24663;SDS011;12791;50.992;13.788;2023-07-31T10:47:29;1.67;;;1.58;;
24663;SDS011;12791;50.992;13.788;2023-07-31T10:50:10;1.88;;;1.45;;
24663;SDS011;12791;50.992;13.788;2023-07-31T10:52:44;2.35;;;1.70;;
24663;SDS011;12791;50.992;13.788;2023-07-31T10:55:15;1.30;;;1.20;;
24663;SDS011;12791;50.992;13.788;2023-07-31T10:57:48;2.00;;;1.67;;
24663;SDS011;12791;50.992;13.788;2023-07-31T11:00:18;2.55;;;1.50;;
24663;SDS011;12791;50.992;13.788;2023-07-31T11:02:57;2.25;;;1.48;;
24663;SDS011;12791;50.992;13.788;2023-07-31T11:08:17;2.22;;;1.55;;
24663;SDS011;12791;50.992;13.788;2023-07-31T11:10:46;2.03;;;1.30;;
24663;SDS011;12791;50.992;13.788;2023-07-31T11:13:13;3.17;;;1.27;;
24663;SDS011;12791;50.992;13.788;2023-07-31T11:15:40;1.35;;;1.10;;
24663;SDS011;12791;50.992;13.788;2023-07-31T11:18:08;1.83;;;1.20;;
24663;SDS011;12791;50.992;13.788;2023-07-31T11:20:36;1.63;;;1.08;;
24663;SDS011;12791;50.992;13.788;2023-07-31T11:23:06;1.40;;;1.00;;
24663;SDS011;12791;50.992;13.788;2023-07-31T11:25:34;1.55;;;1.23;;
24663;SDS011;12791;50.992;13.788;2023-07-31T11:28:02;1.27;;;1.17;;
24663;SDS011;12791;50.992;13.788;2023-07-31T11:30:30;1.27;;;1.17;;
24663;SDS011;12791;50.992;13.788;2023-07-31T11:32:57;1.40;;;1.27;;
24663;SDS011;12791;50.992;13.788;2023-07-31T11:35:25;1.38;;;1.00;;
24663;SDS011;12791;50.992;13.788;2023-07-31T11:37:52;1.55;;;1.20;;
24663;SDS011;12791;50.992;13.788;2023-07-31T11:40:19;1.35;;;1.00;;
24663;SDS011;12791;50.992;13.788;2023-07-31T11:42:46;1.52;;;1.17;;
24663;SDS011;12791;50.992;13.788;2023-07-31T11:45:12;1.17;;;0.98;;
24663;SDS011;12791;50.992;13.788;2023-07-31T11:47:39;1.23;;;1.13;;
24663;SDS011;12791;50.992;13.788;2023-07-31T11:50:06;1.67;;;1.48;;
24663;SDS011;12791;50.992;13.788;2023-07-31T11:52:39;1.10;;;1.00;;
24663;SDS011;12791;50.992;13.788;2023-07-31T11:55:08;1.35;;;1.00;;
24663;SDS011;12791;50.992;13.788;2023-07-31T11:57:36;1.45;;;1.00;;
24663;SDS011;12791;50.992;13.788;2023-07-31T12:00:04;1.20;;;1.10;;
24663;SDS011;12791;50.992;13.788;2023-07-31T12:02:34;0.90;;;0.90;;
24663;SDS011;12791;50.992;13.788;2023-07-31T12:05:02;1.45;;;1.00;;
24663;SDS011;12791;50.992;13.788;2023-07-31T12:07:43;1.35;;;1.05;;
24663;SDS011;12791;50.992;13.788;2023-07-31T12:10:11;1.42;;;0.70;;
24663;SDS011;12791;50.992;13.788;2023-07-31T12:12:55;1.00;;;1.00;;
24663;SDS011;12791;50.992;13.788;2023-07-31T12:15:32;1.08;;;1.05;;
24663;SDS011;12791;50.992;13.788;2023-07-31T12:18:00;1.20;;;1.05;;
24663;SDS011;12791;50.992;13.788;2023-07-31T12:20:31;1.42;;;1.15;;
24663;SDS011;12791;50.992;13.788;2023-07-31T12:22:59;0.85;;;0.80;;
24663;SDS011;12791;50.992;13.788;2023-07-31T12:25:33;1.13;;;0.90;;
24663;SDS011;12791;50.992;13.788;2023-07-31T12:28:04;1.15;;;1.00;;
24663;SDS011;12791;50.992;13.788;2023-07-31T12:30:36;2.50;;;0.80;;
24663;SDS011;12791;50.992;13.788;2023-07-31T12:33:03;2.13;;;1.10;;
24663;SDS011;12791;50.992;13.788;2023-07-31T12:35:34;1.20;;;0.80;;
24663;SDS011;12791;50.992;13.788;2023-07-31T12:38:03;2.05;;;0.93;;
24663;SDS011;12791;50.992;13.788;2023-07-31T12:40:30;2.15;;;1.00;;
24663;SDS011;12791;50.992;13.788;2023-07-31T12:42:56;1.13;;;1.02;;
24663;SDS011;12791;50.992;13.788;2023-07-31T12:45:23;1.13;;;1.08;;
24663;SDS011;12791;50.992;13.788;2023-07-31T12:47:50;1.05;;;1.00;;
24663;SDS011;12791;50.992;13.788;2023-07-31T12:50:16;1.45;;;0.98;;
24663;SDS011;12791;50.992;13.788;2023-07-31T12:52:43;2.83;;;1.20;;
24663;SDS011;12791;50.992;13.788;2023-07-31T12:55:11;1.67;;;1.30;;
24663;SDS011;12791;50.992;13.788;2023-07-31T12:57:39;0.98;;;0.98;;
24663;SDS011;12791;50.992;13.788;2023-07-31T13:00:07;1.58;;;1.10;;
24663;SDS011;12791;50.992;13.788;2023-07-31T13:02:34;0.93;;;0.93;;
24663;SDS011;12791;50.992;13.788;2023-07-31T13:05:01;0.95;;;0.90;;
24663;SDS011;12791;50.992;13.788;2023-07-31T13:07:27;1.48;;;1.17;;
24663;SDS011;12791;50.992;13.788;2023-07-31T13:09:54;1.40;;;1.25;;
24663;SDS011;12791;50.992;13.788;2023-07-31T13:12:22;2.58;;;1.25;;
24663;SDS011;12791;50.992;13.788;2023-07-31T13:14:49;1.70;;;1.20;;
24663;SDS011;12791;50.992;13.788;2023-07-31T13:17:16;3.28;;;1.10;;
24663;SDS011;12791;50.992;13.788;2023-07-31T13:19:43;1.17;;;1.05;;
24663;SDS011;12791;50.992;13.788;2023-07-31T13:22:10;2.45;;;1.38;;
24663;SDS011;12791;50.992;13.788;2023-07-31T13:24:36;1.58;;;1.10;;
24663;SDS011;12791;50.992;13.788;2023-07-31T13:27:03;2.10;;;1.15;;
24663;SDS011;12791;50.992;13.788;2023-07-31T13:29:31;2.05;;;1.10;;
24663;SDS011;12791;50.992;13.788;2023-07-31T13:31:58;1.10;;;1.00;;
24663;SDS011;12791;50.992;13.788;2023-07-31T13:34:25;1.42;;;1.02;;
24663;SDS011;12791;50.992;13.788;2023-07-31T13:36:53;1.15;;;0.80;;
24663;SDS011;12791;50.992;13.788;2023-07-31T13:39:20;1.30;;;1.02;;
24663;SDS011;12791;50.992;13.788;2023-07-31T13:41:47;1.15;;;1.05;;
24663;SDS011;12791;50.992;13.788;2023-07-31T13:44:14;2.40;;;1.00;;
24663;SDS011;12791;50.992;13.788;2023-07-31T13:46:42;2.78;;;1.17;;
24663;SDS011;12791;50.992;13.788;2023-07-31T13:49:09;1.40;;;1.25;;
24663;SDS011;12791;50.992;13.788;2023-07-31T13:51:35;1.15;;;1.05;;
24663;SDS011;12791;50.992;13.788;2023-07-31T13:54:04;1.55;;;1.02;;
24663;SDS011;12791;50.992;13.788;2023-07-31T13:56:31;1.75;;;1.30;;
24663;SDS011;12791;50.992;13.788;2023-07-31T13:58:58;2.95;;;0.90;;
24663;SDS011;12791;50.992;13.788;2023-07-31T14:01:26;1.42;;;0.88;;
24663;SDS011;12791;50.992;13.788;2023-07-31T14:03:54;3.03;;;1.10;;
24663;SDS011;12791;50.992;13.788;2023-07-31T14:06:20;1.80;;;1.10;;
24663;SDS011;12791;50.992;13.788;2023-07-31T14:08:47;1.50;;;1.10;;
24663;SDS011;12791;50.992;13.788;2023-07-31T14:11:14;1.02;;;0.93;;
24663;SDS011;12791;50.992;13.788;2023-07-31T14:13:40;1.73;;;1.38;;
24663;SDS011;12791;50.992;13.788;2023-07-31T14:16:07;1.63;;;1.50;;
24663;SDS011;12791;50.992;13.788;2023-07-31T14:18:34;1.15;;;0.95;;
24663;SDS011;12791;50.992;13.788;2023-07-31T14:21:02;1.48;;;1.10;;
24663;SDS011;12791;50.992;13.788;2023-07-31T14:23:29;1.65;;;1.10;;
24663;SDS011;12791;50.992;13.788;2023-07-31T14:25:55;1.98;;;1.23;;
24663;SDS011;12791;50.992;13.788;2023-07-31T14:28:22;1.30;;;1.20;;
24663;SDS011;12791;50.992;13.788;2023-07-31T14:30:49;1.70;;;1.20;;
24663;SDS011;12791;50.992;13.788;2023-07-31T14:33:16;1.60;;;1.48;;
24663;SDS011;12791;50.992;13.788;2023-07-31T14:35:42;2.05;;;1.42;;
24663;SDS011;12791;50.992;13.788;2023-07-31T14:38:11;1.20;;;1.20;;
24663;SDS011;12791;50.992;13.788;2023-07-31T14:40:37;1.40;;;1.20;;
24663;SDS011;12791;50.992;13.788;2023-07-31T14:43:04;1.20;;;1.10;;